sensor_id;sensor_type;location;lat;lon;timestamp;pressure;altitude;pressure_sealevel;temperature;humidity
16806;BME280;8520;50.102;20.010;2023-04-19T14:36:13;98203.19;;;11.04;82.93
16806;BME280;8520;50.102;20.010;2023-04-19T14:38:41;98211.31;;;10.72;82.29
16806;BME280;8520;50.102;20.010;2023-04-19T14:41:10;98206.22;;;11.06;82.20
16806;BME280;8520;50.102;20.010;2023-04-19T14:43:38;98204.59;;;11.40;79.86
16806;BME280;8520;50.102;20.010;2023-04-19T14:46:06;98185.91;;;11.55;80.53
16806;BME280;8520;50.102;20.010;2023-04-19T14:48:34;98185.53;;;12.90;75.77
16806;BME280;8520;50.102;20.010;2023-04-19T14:51:03;98187.91;;;12.55;76.41
16806;BME280;8520;50.102;20.010;2023-04-19T14:53:32;98192.03;;;13.92;71.89
16806;BME280;8520;50.102;20.010;2023-04-19T14:56:02;98195.00;;;12.67;75.01
16806;BME280;8520;50.102;20.010;2023-04-19T14:58:31;98190.75;;;13.54;72.40
16806;BME280;8520;50.102;20.010;2023-04-19T15:00:59;98195.81;;;13.77;72.37
16806;BME280;8520;50.102;20.010;2023-04-19T15:03:27;98196.50;;;14.62;68.88
16806;BME280;8520;50.102;20.010;2023-04-19T15:05:55;98203.38;;;15.13;66.89
16806;BME280;8520;50.102;20.010;2023-04-19T15:08:23;98214.94;;;14.43;68.17
16806;BME280;8520;50.102;20.010;2023-04-19T15:10:58;98222.56;;;14.03;69.08
16806;BME280;8520;50.102;20.010;2023-04-19T15:13:26;98207.63;;;13.50;71.67
16806;BME280;8520;50.102;20.010;2023-04-19T15:15:55;98222.03;;;13.71;69.86
16806;BME280;8520;50.102;20.010;2023-04-19T15:18:23;98218.22;;;14.63;67.42
16806;BME280;8520;50.102;20.010;2023-04-19T15:20:51;98221.56;;;14.00;68.41
16806;BME280;8520;50.102;20.010;2023-04-19T15:23:22;98217.06;;;13.04;71.48
16806;BME280;8520;50.102;20.010;2023-04-19T15:25:50;98234.81;;;12.75;72.66
16806;BME280;8520;50.102;20.010;2023-04-19T15:28:21;98244.66;;;12.39;74.25
16806;BME280;8520;50.102;20.010;2023-04-19T15:30:57;98232.50;;;11.68;77.26
16806;BME280;8520;50.102;20.010;2023-04-19T15:33:34;98233.91;;;12.95;74.01
16806;BME280;8520;50.102;20.010;2023-04-19T15:36:02;98233.28;;;13.28;71.44
16806;BME280;8520;50.102;20.010;2023-04-19T15:38:31;98237.63;;;12.86;72.12
16806;BME280;8520;50.102;20.010;2023-04-19T15:40:59;98243.34;;;12.29;75.43
16806;BME280;8520;50.102;20.010;2023-04-19T15:43:29;98247.03;;;12.57;74.84
16806;BME280;8520;50.102;20.010;2023-04-19T15:45:57;98240.75;;;12.20;75.56
16806;BME280;8520;50.102;20.010;2023-04-19T15:48:26;98251.91;;;11.07;79.67
16806;BME280;8520;50.102;20.010;2023-04-19T15:50:55;98254.16;;;11.49;78.39
16806;BME280;8520;50.102;20.010;2023-04-19T15:53:23;98252.91;;;10.83;80.50
16806;BME280;8520;50.102;20.010;2023-04-19T15:55:51;98255.03;;;11.35;79.50
16806;BME280;8520;50.102;20.010;2023-04-19T15:58:22;98252.84;;;10.98;80.11
16806;BME280;8520;50.102;20.010;2023-04-19T16:00:52;98252.44;;;10.70;80.84
16806;BME280;8520;50.102;20.010;2023-04-19T16:03:20;98252.19;;;10.88;81.01
16806;BME280;8520;50.102;20.010;2023-04-19T16:05:48;98252.56;;;10.61;82.49
16806;BME280;8520;50.102;20.010;2023-04-19T16:08:17;98259.13;;;10.99;81.24
16806;BME280;8520;50.102;20.010;2023-04-19T16:10:46;98263.81;;;10.78;82.36
16806;BME280;8520;50.102;20.010;2023-04-19T16:13:15;98263.25;;;10.53;83.29
16806;BME280;8520;50.102;20.010;2023-04-19T16:15:43;98255.66;;;10.33;82.85
16806;BME280;8520;50.102;20.010;2023-04-19T16:18:13;98260.50;;;10.53;83.38
16806;BME280;8520;50.102;20.010;2023-04-19T16:20:41;98264.66;;;10.63;81.77
16806;BME280;8520;50.102;20.010;2023-04-19T16:23:09;98271.22;;;10.66;82.41
16806;BME280;8520;50.102;20.010;2023-04-19T16:25:37;98265.66;;;10.31;83.93
16806;BME280;8520;50.102;20.010;2023-04-19T16:28:07;98260.41;;;9.98;84.67
16806;BME280;8520;50.102;20.010;2023-04-19T16:30:35;98264.03;;;10.39;84.26
16806;BME280;8520;50.102;20.010;2023-04-19T16:33:04;98272.63;;;10.26;83.79
16806;BME280;8520;50.102;20.010;2023-04-19T16:35:34;98273.06;;;10.39;82.83
16806;BME280;8520;50.102;20.010;2023-04-19T16:38:02;98262.78;;;9.90;85.25
16806;BME280;8520;50.102;20.010;2023-04-19T16:40:32;98265.22;;;10.18;84.80
16806;BME280;8520;50.102;20.010;2023-04-19T16:43:00;98270.81;;;10.23;84.15
16806;BME280;8520;50.102;20.010;2023-04-19T16:45:28;98265.31;;;10.58;82.98
16806;BME280;8520;50.102;20.010;2023-04-19T16:47:56;98273.13;;;10.25;83.16
16806;BME280;8520;50.102;20.010;2023-04-19T16:50:25;98274.31;;;10.24;83.51
16806;BME280;8520;50.102;20.010;2023-04-19T16:52:54;98288.00;;;10.48;82.39
16806;BME280;8520;50.102;20.010;2023-04-19T16:55:22;98276.53;;;10.34;83.52
16806;BME280;8520;50.102;20.010;2023-04-19T16:57:50;98272.09;;;10.57;81.84
16806;BME280;8520;50.102;20.010;2023-04-19T17:00:21;98279.75;;;10.68;82.08
16806;BME280;8520;50.102;20.010;2023-04-19T17:02:49;98279.75;;;10.83;81.60
16806;BME280;8520;50.102;20.010;2023-04-19T17:05:19;98276.88;;;10.77;81.00
16806;BME280;8520;50.102;20.010;2023-04-19T17:07:48;98279.94;;;10.44;82.90
16806;BME280;8520;50.102;20.010;2023-04-19T17:10:18;98289.34;;;10.23;83.79
16806;BME280;8520;50.102;20.010;2023-04-19T17:12:46;98289.88;;;10.56;82.75
16806;BME280;8520;50.102;20.010;2023-04-19T17:15:14;98284.88;;;10.90;81.45
16806;BME280;8520;50.102;20.010;2023-04-19T17:17:43;98289.91;;;10.42;83.52
16806;BME280;8520;50.102;20.010;2023-04-19T17:20:11;98292.44;;;10.95;80.83
16806;BME280;8520;50.102;20.010;2023-04-19T17:22:41;98298.41;;;10.23;84.05
16806;BME280;8520;50.102;20.010;2023-04-19T17:25:09;98300.78;;;10.30;83.88
16806;BME280;8520;50.102;20.010;2023-04-19T17:27:38;98303.47;;;10.25;84.66
16806;BME280;8520;50.102;20.010;2023-04-19T17:30:07;98310.06;;;10.33;84.78
16806;BME280;8520;50.102;20.010;2023-04-19T17:32:35;98312.00;;;10.27;84.73
16806;BME280;8520;50.102;20.010;2023-04-19T17:35:04;98301.06;;;10.18;84.24
16806;BME280;8520;50.102;20.010;2023-04-19T17:37:32;98303.66;;;10.06;84.48
16806;BME280;8520;50.102;20.010;2023-04-19T17:40:00;98310.56;;;10.31;83.99
16806;BME280;8520;50.102;20.010;2023-04-19T17:42:33;98307.44;;;10.24;84.20
16806;BME280;8520;50.102;20.010;2023-04-19T17:45:03;98321.22;;;9.41;87.36
16806;BME280;8520;50.102;20.010;2023-04-19T17:47:36;98331.41;;;9.88;86.01
16806;BME280;8520;50.102;20.010;2023-04-19T17:50:07;98320.38;;;10.03;85.78
16806;BME280;8520;50.102;20.010;2023-04-19T17:52:35;98323.78;;;10.27;84.39
16806;BME280;8520;50.102;20.010;2023-04-19T17:55:04;98331.41;;;9.88;86.64
16806;BME280;8520;50.102;20.010;2023-04-19T17:57:33;98332.53;;;9.96;86.02
16806;BME280;8520;50.102;20.010;2023-04-19T18:00:02;98337.78;;;10.09;85.28
16806;BME280;8520;50.102;20.010;2023-04-19T18:02:34;98337.84;;;9.70;86.96
16806;BME280;8520;50.102;20.010;2023-04-19T18:05:03;98345.72;;;9.63;87.56
16806;BME280;8520;50.102;20.010;2023-04-19T18:07:33;98342.94;;;9.63;87.93
16806;BME280;8520;50.102;20.010;2023-04-19T18:10:02;98331.59;;;9.46;87.20
16806;BME280;8520;50.102;20.010;2023-04-19T18:12:30;98340.69;;;9.61;87.77
16806;BME280;8520;50.102;20.010;2023-04-19T18:14:59;98354.13;;;9.59;88.45
16806;BME280;8520;50.102;20.010;2023-04-19T18:17:29;98343.59;;;9.58;88.39
16806;BME280;8520;50.102;20.010;2023-04-19T18:19:57;98359.63;;;9.44;88.71
16806;BME280;8520;50.102;20.010;2023-04-19T18:22:25;98355.06;;;9.95;87.09
16806;BME280;8520;50.102;20.010;2023-04-19T18:24:53;98354.97;;;9.89;86.88
16806;BME280;8520;50.102;20.010;2023-04-19T18:27:21;98368.44;;;9.72;87.16
16806;BME280;8520;50.102;20.010;2023-04-19T18:29:50;98365.34;;;9.56;88.11
16806;BME280;8520;50.102;20.010;2023-04-19T18:32:18;98366.25;;;9.76;87.21
16806;BME280;8520;50.102;20.010;2023-04-19T18:34:49;98369.84;;;9.20;88.78
16806;BME280;8520;50.102;20.010;2023-04-19T18:37:17;98377.13;;;9.56;87.88
16806;BME280;8520;50.102;20.010;2023-04-19T18:39:45;98374.16;;;9.45;88.44
16806;BME280;8520;50.102;20.010;2023-04-19T18:42:13;98373.06;;;9.66;87.65
16806;BME280;8520;50.102;20.010;2023-04-19T18:44:41;98377.94;;;9.71;87.61
16806;BME280;8520;50.102;20.010;2023-04-19T18:47:20;98364.66;;;9.85;87.39
16806;BME280;8520;50.102;20.010;2023-04-19T18:49:50;98371.53;;;9.27;89.09
16806;BME280;8520;50.102;20.010;2023-04-19T18:52:32;98374.50;;;9.38;88.88
16806;BME280;8520;50.102;20.010;2023-04-19T18:55:01;98385.28;;;9.50;88.83
16806;BME280;8520;50.102;20.010;2023-04-19T18:57:29;98376.16;;;9.83;87.40
16806;BME280;8520;50.102;20.010;2023-04-19T19:00:00;98385.91;;;9.69;87.03
16806;BME280;8520;50.102;20.010;2023-04-19T19:02:31;98378.03;;;9.77;87.46
16806;BME280;8520;50.102;20.010;2023-04-19T19:05:04;98373.25;;;9.63;87.21
16806;BME280;8520;50.102;20.010;2023-04-19T19:07:34;98375.38;;;9.44;87.81
16806;BME280;8520;50.102;20.010;2023-04-19T19:10:05;98380.56;;;9.66;88.13
16806;BME280;8520;50.102;20.010;2023-04-19T19:12:37;98382.56;;;9.41;88.02
16806;BME280;8520;50.102;20.010;2023-04-19T19:15:07;98387.47;;;9.13;88.38
16806;BME280;8520;50.102;20.010;2023-04-19T19:17:35;98385.94;;;9.12;89.66
16806;BME280;8520;50.102;20.010;2023-04-19T19:20:06;98385.59;;;9.29;89.62
16806;BME280;8520;50.102;20.010;2023-04-19T19:22:35;98380.84;;;9.20;89.33
16806;BME280;8520;50.102;20.010;2023-04-19T19:25:04;98388.19;;;9.23;89.20
16806;BME280;8520;50.102;20.010;2023-04-19T19:27:32;98386.97;;;9.48;88.55
16806;BME280;8520;50.102;20.010;2023-04-19T19:30:01;98381.81;;;9.41;88.59
16806;BME280;8520;50.102;20.010;2023-04-19T19:32:30;98391.84;;;9.53;88.19
16806;BME280;8520;50.102;20.010;2023-04-19T19:34:58;98393.78;;;9.05;89.42
16806;BME280;8520;50.102;20.010;2023-04-19T19:37:34;98385.28;;;9.27;89.20
16806;BME280;8520;50.102;20.010;2023-04-19T19:40:03;98386.97;;;9.24;89.41
16806;BME280;8520;50.102;20.010;2023-04-19T19:42:33;98390.03;;;9.26;89.31
16806;BME280;8520;50.102;20.010;2023-04-19T19:45:01;98390.91;;;9.32;88.90
16806;BME280;8520;50.102;20.010;2023-04-19T19:47:29;98399.13;;;9.08;90.22
16806;BME280;8520;50.102;20.010;2023-04-19T19:50:02;98397.44;;;9.11;89.97
16806;BME280;8520;50.102;20.010;2023-04-19T19:52:52;98396.19;;;9.12;89.45
16806;BME280;8520;50.102;20.010;2023-04-19T19:55:20;98392.06;;;9.40;88.10
16806;BME280;8520;50.102;20.010;2023-04-19T19:57:48;98391.66;;;9.33;88.79
16806;BME280;8520;50.102;20.010;2023-04-19T20:00:19;98393.72;;;9.71;86.57
16806;BME280;8520;50.102;20.010;2023-04-19T20:03:07;98396.53;;;9.38;88.16
16806;BME280;8520;50.102;20.010;2023-04-19T20:05:37;98395.84;;;9.52;87.69
16806;BME280;8520;50.102;20.010;2023-04-19T20:08:08;98397.19;;;9.57;87.76
16806;BME280;8520;50.102;20.010;2023-04-19T20:10:38;98403.38;;;9.66;87.45
16806;BME280;8520;50.102;20.010;2023-04-19T20:13:07;98395.03;;;9.75;86.87
16806;BME280;8520;50.102;20.010;2023-04-19T20:15:36;98396.75;;;9.73;87.25
16806;BME280;8520;50.102;20.010;2023-04-19T20:18:05;98399.25;;;9.86;86.20
16806;BME280;8520;50.102;20.010;2023-04-19T20:20:34;98395.84;;;9.91;85.81
16806;BME280;8520;50.102;20.010;2023-04-19T20:23:03;98395.72;;;9.85;86.80
16806;BME280;8520;50.102;20.010;2023-04-19T20:25:33;98393.53;;;9.50;87.40
16806;BME280;8520;50.102;20.010;2023-04-19T20:28:01;98396.00;;;9.48;88.28
16806;BME280;8520;50.102;20.010;2023-04-19T20:30:30;98389.53;;;9.75;88.80
16806;BME280;8520;50.102;20.010;2023-04-19T20:32:58;98404.75;;;9.86;87.41
16806;BME280;8520;50.102;20.010;2023-04-19T20:35:27;98392.91;;;9.32;89.27
16806;BME280;8520;50.102;20.010;2023-04-19T20:37:55;98393.00;;;10.00;87.21
16806;BME280;8520;50.102;20.010;2023-04-19T20:40:29;98391.38;;;9.93;86.91
16806;BME280;8520;50.102;20.010;2023-04-19T20:42:59;98395.88;;;9.67;88.34
16806;BME280;8520;50.102;20.010;2023-04-19T20:45:27;98400.75;;;9.24;89.39
16806;BME280;8520;50.102;20.010;2023-04-19T20:47:55;98391.66;;;9.80;87.14
16806;BME280;8520;50.102;20.010;2023-04-19T20:50:24;98397.66;;;9.31;89.73
16806;BME280;8520;50.102;20.010;2023-04-19T20:52:52;98400.00;;;9.47;89.37
16806;BME280;8520;50.102;20.010;2023-04-19T20:55:20;98403.28;;;9.37;89.46
16806;BME280;8520;50.102;20.010;2023-04-19T20:57:48;98399.75;;;9.60;89.48
16806;BME280;8520;50.102;20.010;2023-04-19T21:00:18;98397.81;;;9.28;90.77
16806;BME280;8520;50.102;20.010;2023-04-19T21:02:46;98398.41;;;9.79;88.94
16806;BME280;8520;50.102;20.010;2023-04-19T21:05:15;98399.66;;;9.54;89.45
16806;BME280;8520;50.102;20.010;2023-04-19T21:07:43;98397.25;;;9.14;91.65
16806;BME280;8520;50.102;20.010;2023-04-19T21:10:11;98401.22;;;9.22;91.40
16806;BME280;8520;50.102;20.010;2023-04-19T21:12:42;98403.75;;;9.35;91.24
16806;BME280;8520;50.102;20.010;2023-04-19T21:15:10;98400.59;;;9.28;91.06
16806;BME280;8520;50.102;20.010;2023-04-19T21:17:40;98408.09;;;9.27;90.95
16806;BME280;8520;50.102;20.010;2023-04-19T21:20:09;98401.50;;;9.48;90.65
16806;BME280;8520;50.102;20.010;2023-04-19T21:22:40;98401.03;;;9.50;90.78
16806;BME280;8520;50.102;20.010;2023-04-19T21:25:09;98399.59;;;9.78;89.34
16806;BME280;8520;50.102;20.010;2023-04-19T21:27:39;98398.28;;;10.27;87.49
16806;BME280;8520;50.102;20.010;2023-04-19T21:30:09;98402.75;;;9.71;88.98
16806;BME280;8520;50.102;20.010;2023-04-19T21:32:37;98398.47;;;9.70;89.27
16806;BME280;8520;50.102;20.010;2023-04-19T21:35:08;98404.69;;;9.56;89.65
16806;BME280;8520;50.102;20.010;2023-04-19T21:37:36;98402.19;;;9.82;89.66
16806;BME280;8520;50.102;20.010;2023-04-19T21:40:05;98408.19;;;9.95;88.62
16806;BME280;8520;50.102;20.010;2023-04-19T21:42:34;98408.81;;;9.75;89.74
16806;BME280;8520;50.102;20.010;2023-04-19T21:45:03;98409.03;;;9.72;90.03
16806;BME280;8520;50.102;20.010;2023-04-19T21:47:31;98402.19;;;9.82;90.52
16806;BME280;8520;50.102;20.010;2023-04-19T21:49:59;98399.22;;;9.71;91.09
16806;BME280;8520;50.102;20.010;2023-04-19T21:52:29;98400.13;;;9.29;92.90
16806;BME280;8520;50.102;20.010;2023-04-19T21:54:57;98399.78;;;9.75;91.19
16806;BME280;8520;50.102;20.010;2023-04-19T21:57:25;98408.47;;;9.59;91.82
16806;BME280;8520;50.102;20.010;2023-04-19T21:59:53;98403.22;;;9.70;90.40
16806;BME280;8520;50.102;20.010;2023-04-19T22:02:21;98404.50;;;9.60;91.86
16806;BME280;8520;50.102;20.010;2023-04-19T22:04:50;98403.59;;;9.77;90.35
16806;BME280;8520;50.102;20.010;2023-04-19T22:07:19;98405.63;;;9.92;89.94
16806;BME280;8520;50.102;20.010;2023-04-19T22:09:51;98398.13;;;9.53;92.10
16806;BME280;8520;50.102;20.010;2023-04-19T22:12:20;98409.03;;;9.72;91.23
16806;BME280;8520;50.102;20.010;2023-04-19T22:14:48;98411.94;;;9.68;91.03
16806;BME280;8520;50.102;20.010;2023-04-19T22:17:16;98411.50;;;9.70;92.03
16806;BME280;8520;50.102;20.010;2023-04-19T22:19:45;98408.47;;;9.82;90.37
16806;BME280;8520;50.102;20.010;2023-04-19T22:22:14;98406.19;;;9.81;90.92
16806;BME280;8520;50.102;20.010;2023-04-19T22:24:42;98414.19;;;9.79;90.89
16806;BME280;8520;50.102;20.010;2023-04-19T22:27:25;98405.34;;;9.90;90.38
16806;BME280;8520;50.102;20.010;2023-04-19T22:29:53;98411.69;;;9.81;90.43
16806;BME280;8520;50.102;20.010;2023-04-19T22:32:21;98405.84;;;9.64;90.80
16806;BME280;8520;50.102;20.010;2023-04-19T22:34:50;98412.38;;;9.52;91.94
16806;BME280;8520;50.102;20.010;2023-04-19T22:37:18;98407.84;;;9.64;91.17
16806;BME280;8520;50.102;20.010;2023-04-19T22:39:46;98406.13;;;9.90;90.21
16806;BME280;8520;50.102;20.010;2023-04-19T22:42:15;98402.28;;;9.73;90.37
16806;BME280;8520;50.102;20.010;2023-04-19T22:44:44;98406.75;;;9.85;89.88
16806;BME280;8520;50.102;20.010;2023-04-19T22:47:12;98408.03;;;9.99;89.22
16806;BME280;8520;50.102;20.010;2023-04-19T22:49:41;98409.19;;;10.22;88.25
16806;BME280;8520;50.102;20.010;2023-04-19T22:52:09;98404.72;;;10.09;87.94
16806;BME280;8520;50.102;20.010;2023-04-19T22:54:37;98404.13;;;10.05;88.04
16806;BME280;8520;50.102;20.010;2023-04-19T22:57:05;98404.66;;;9.80;89.27
16806;BME280;8520;50.102;20.010;2023-04-19T22:59:33;98398.53;;;9.61;90.76
16806;BME280;8520;50.102;20.010;2023-04-19T23:02:03;98400.06;;;9.62;89.81
16806;BME280;8520;50.102;20.010;2023-04-19T23:04:32;98406.25;;;9.48;90.40
16806;BME280;8520;50.102;20.010;2023-04-19T23:07:01;98414.84;;;9.17;92.22
16806;BME280;8520;50.102;20.010;2023-04-19T23:09:29;98416.50;;;9.23;91.91
16806;BME280;8520;50.102;20.010;2023-04-19T23:11:57;98414.50;;;9.24;91.95
16806;BME280;8520;50.102;20.010;2023-04-19T23:14:26;98408.38;;;9.29;91.87
16806;BME280;8520;50.102;20.010;2023-04-19T23:16:54;98407.22;;;9.45;90.24
16806;BME280;8520;50.102;20.010;2023-04-19T23:19:25;98413.13;;;9.29;91.01
16806;BME280;8520;50.102;20.010;2023-04-19T23:21:53;98410.34;;;8.95;91.78
16806;BME280;8520;50.102;20.010;2023-04-19T23:24:21;98413.59;;;9.27;91.37
16806;BME280;8520;50.102;20.010;2023-04-19T23:26:49;98409.25;;;9.02;91.94
16806;BME280;8520;50.102;20.010;2023-04-19T23:29:18;98397.78;;;9.61;90.06
16806;BME280;8520;50.102;20.010;2023-04-19T23:31:46;98401.50;;;8.91;91.52
16806;BME280;8520;50.102;20.010;2023-04-19T23:34:14;98404.28;;;8.82;93.27
16806;BME280;8520;50.102;20.010;2023-04-19T23:36:44;98393.53;;;8.60;93.61
16806;BME280;8520;50.102;20.010;2023-04-19T23:39:12;98395.91;;;8.77;93.33
16806;BME280;8520;50.102;20.010;2023-04-19T23:41:42;98383.22;;;8.79;93.04
16806;BME280;8520;50.102;20.010;2023-04-19T23:44:10;98389.56;;;8.94;92.16
16806;BME280;8520;50.102;20.010;2023-04-19T23:46:38;98396.19;;;8.88;91.91
16806;BME280;8520;50.102;20.010;2023-04-19T23:49:06;98379.38;;;8.77;92.54
16806;BME280;8520;50.102;20.010;2023-04-19T23:51:35;98386.28;;;9.05;91.66
16806;BME280;8520;50.102;20.010;2023-04-19T23:54:04;98381.84;;;9.08;90.86
16806;BME280;8520;50.102;20.010;2023-04-19T23:56:32;98386.38;;;8.87;91.34
16806;BME280;8520;50.102;20.010;2023-04-19T23:59:00;98380.25;;;8.92;91.67
